CEFAS Endeavour — VQHF3 — position and weather

sailwx.info

Track history (hours):
 
Tides and Currents Weather Stations Pressure Air Temp Water Temp Dewpoint Dewpoint Depression Visibility Wind Speed Wind Dir Waves Ship Positions

Oceanographic research ship CEFAS Endeavour (UK)

Detailed information on ship capabilities available from University of Delaware's Ocean Information Center.

Last reported at 2018-Jun-21 06:30 UTC. Time now 2018-Jun-21 06:52 UTC.
Position N 55°11' W 001°08'.

Length 74 m; draft 8.5 m.

Type: Ship. MMSI: 235005270.

Date/timePositionNaut miles runAvg speedWind from/ knotsBaromVisibWave heightAir tempDewpointWater temp
2018-Jun-21 06:30N 55°11' W 001°08'1 2.5
2018-Jun-21 06:00N 55°10' W 001°07'4 5.6
2018-Jun-21 05:18N 55°14' W 001°07'0 0.5
2018-Jun-21 05:00N 55°14' W 001°07'1 2.3
2018-Jun-21 04:30N 55°15' W 001°08'0 0.6
2018-Jun-21 04:00N 55°15' W 001°09'2 4.9
2018-Jun-21 03:30N 55°16' W 001°13'0 0.6
2018-Jun-21 03:00N 55°16' W 001°13'2 4.3
2018-Jun-21 02:30N 55°18' W 001°11'1 1.3
2018-Jun-21 02:00N 55°18' W 001°10'3 5.9
2018-Jun-21 01:30N 55°18' W 001°05'0 0.9
2018-Jun-21 01:00N 55°18' W 001°04'2 4.0
2018-Jun-21 00:30N 55°19' W 001°01'4 5.0
2018-Jun-20 23:45N 55°20' W 001°07'0 0.7
2018-Jun-20 23:30N 55°20' W 001°07'0 0.4
2018-Jun-20 23:00N 55°20' W 001°07'3 6.2
2018-Jun-20 22:30N 55°21' W 001°12'0 0.6
2018-Jun-20 22:00N 55°21' W 001°12'3 6.3
2018-Jun-20 21:30N 55°21' W 001°17'0 0.7
2018-Jun-20 21:00N 55°21' W 001°17'3 5.0
2018-Jun-20 20:30N 55°23' W 001°14'0 0.5
2018-Jun-20 20:00N 55°23' W 001°14'2 3.9
2018-Jun-20 19:30N 55°23' W 001°11'1 2.6
2018-Jun-20 19:00N 55°22' W 001°09'2 4.5
2018-Jun-20 18:29N 55°23' W 001°05'0 1.0
2018-Jun-20 18:00N 55°22' W 001°04'3 6.3
2018-Jun-20 17:28N 55°24' W 000°59'1 1.3
2018-Jun-20 16:44N 55°25' W 000°58'2 8.3
2018-Jun-20 16:30N 55°25' W 000°54'4 7.9
2018-Jun-20 16:00N 55°26' W 000°48'5 4.2
2018-Jun-20 14:45N 55°22' W 000°55'6 0.4
2018-Jun-19 22:38N 55°27' W 001°03'2 9.1
2018-Jun-19 22:22N 55°27' W 001°07'0 0.7
2018-Jun-19 21:59N 55°27' W 001°07'0 0.4
2018-Jun-19 21:30N 55°27' W 001°07'6 9.9
2018-Jun-19 20:55N 55°33' W 001°06'0 0.3
2018-Jun-19 19:34N 55°32' W 001°06'0 0.0
2018-Jun-19 19:26N 55°32' W 001°06'0 0.0
2018-Jun-19 19:00N 55°32' W 001°06'0 0.0
2018-Jun-19 18:30N 55°32' W 001°06'2 3.1
2018-Jun-19 18:00N 55°31' W 001°04'1311.3
2018-Jun-19 16:51N 55°21' W 000°51'2912.2
2018-Jun-19 14:30N 54°57' W 000°23'612.4
2018-Jun-19 14:00N 54°52' W 000°17'612.6
2018-Jun-19 13:30N 54°47' W 000°11'612.6
2018-Jun-19 13:00N 54°42' W 000°04'612.4
2018-Jun-19 12:30N 54°36' E 000°02'612.9
2018-Jun-19 12:00N 54°31' E 000°08'612.8
2018-Jun-19 11:30N 54°26' E 000°14'612.9
2018-Jun-19 11:00N 54°21' E 000°20'612.8
2018-Jun-19 10:30N 54°15' E 000°27'812.3
2018-Jun-19 09:50N 54°09' E 000°35'5312.3
2018-Jun-19 05:31N 53°22' E 001°18'014.4
2018-Jun-19 05:30N 53°22' E 001°19'714.5
2018-Jun-19 04:59N 53°17' E 001°27'714.5
2018-Jun-19 04:30N 53°11' E 001°34'714.3
2018-Jun-19 04:01N 53°05' E 001°41'713.9
2018-Jun-19 03:30N 52°59' E 001°48'713.4
2018-Jun-19 03:00N 52°53' E 001°52'612.9
2018-Jun-19 02:30N 52°47' E 001°54'612.2
2018-Jun-19 02:00N 52°41' E 001°55'15 0.4
2018-Jun-17 10:16N 52°26' E 001°49'9 2.4
2018-Jun-17 06:24N 52°20' E 002°00'3 7.2
2018-Jun-17 06:00N 52°17' E 001°59'4 7.5
2018-Jun-17 05:31N 52°13' E 001°57'4 7.9
2018-Jun-17 05:01N 52°10' E 001°56'4 8.3
2018-Jun-17 04:31N 52°06' E 001°54'612.6
2018-Jun-17 04:01N 51°60' E 001°51'612.7
2018-Jun-17 03:31N 51°53' E 001°48'612.0
2018-Jun-17 03:00N 51°48' E 001°49'612.2
2018-Jun-17 02:31N 51°41' E 001°49'611.8
2018-Jun-17 02:00N 51°35' E 001°50'613.0
2018-Jun-17 01:30N 51°29' E 001°49'714.3
2018-Jun-17 01:00N 51°22' E 001°45'714.0
2018-Jun-17 00:30N 51°16' E 001°41'612.7
2018-Jun-17 00:00N 51°10' E 001°35'713.2
2018-Jun-16 23:30N 51°07' E 001°27'713.3
2018-Jun-16 23:00N 51°03' E 001°18'612.5
2018-Jun-16 22:30N 50°59' E 001°10'712.5
2018-Jun-16 21:59N 50°55' E 001°02'4 8.1
2018-Jun-16 21:30N 50°53' E 000°57'612.1
2018-Jun-16 21:00N 50°49' E 000°49'612.3
2018-Jun-16 20:30N 50°45' E 000°42'612.2
2018-Jun-16 20:00N 50°41' E 000°34'611.3
2018-Jun-16 19:30N 50°40' E 000°25'611.8
2018-Jun-16 19:00N 50°40' E 000°16'611.4
2018-Jun-16 18:30N 50°39' E 000°07'1411.5
2018-Jun-16 17:16N 50°37' W 000°15'311.6
2018-Jun-16 17:00N 50°36' W 000°20'611.5
2018-Jun-16 16:30N 50°35' W 000°28'2 4.5
2018-Jun-16 16:00N 50°34' W 000°31'4 8.6
2018-Jun-16 15:29N 50°32' W 000°38'510.6
2018-Jun-16 15:00N 50°30' W 000°45'6811.2
2018-Jun-16 08:53N 50°22' W 002°32'610.9
2018-Jun-16 08:20N 50°22' W 002°41'310.4
2018-Jun-16 08:00N 50°22' W 002°46'5 9.8
2018-Jun-16 07:30N 50°22' W 002°54'4 7.6
2018-Jun-16 07:00N 50°20' W 002°59'1 1.8
2018-Jun-16 06:30N 50°20' W 002°58'1 1.8
2018-Jun-16 05:58N 50°20' W 002°59'0 0.4
2018-Jun-16 05:30N 50°20' W 002°60'0 0.1
2018-Jun-16 05:00N 50°20' W 002°60'0 0.4
2018-Jun-16 04:30N 50°20' W 002°59'1 2.1
2018-Jun-16 04:00N 50°21' W 002°60'1 2.1
2018-Jun-16 03:30N 50°20' W 002°60'0 1.0
2018-Jun-16 03:00N 50°20' W 002°59'1 1.1
2018-Jun-16 02:30N 50°21' W 002°58'1 2.3
2018-Jun-16 02:00N 50°20' W 003°00'0 0.6
2018-Jun-16 01:30N 50°20' W 003°00'1 1.5
2018-Jun-16 01:00N 50°20' W 002°59'1 1.5
2018-Jun-16 00:31N 50°20' W 003°00'0 0.7
2018-Jun-16 00:00N 50°20' W 002°60'1 1.6
2018-Jun-15 23:30N 50°20' W 002°59'1 2.3
2018-Jun-15 23:00N 50°20' W 003°00'0 0.4
2018-Jun-15 22:30N 50°20' W 003°00'1 1.7
2018-Jun-15 22:00N 50°20' W 002°59'0 0.4
2018-Jun-15 21:30N 50°20' W 002°59'1 1.1
2018-Jun-15 21:00N 50°20' W 003°00'0 0.8
2018-Jun-15 20:24N 50°20' W 002°59'0 0.7
2018-Jun-15 20:00N 50°20' W 002°60'0 0.1
2018-Jun-15 19:30N 50°20' W 002°60'0 0.1
2018-Jun-15 19:00N 50°20' W 002°60'0 0.8
2018-Jun-15 18:30N 50°20' W 002°59'0 0.4
2018-Jun-15 18:00N 50°20' W 002°59'0 0.4
2018-Jun-15 17:30N 50°20' W 002°59'0 0.4
2018-Jun-15 17:00N 50°20' W 002°59'0 0.0
2018-Jun-15 16:30N 50°20' W 002°59'0 0.5
2018-Jun-15 16:00N 50°20' W 002°59'0 0.3
2018-Jun-15 15:30N 50°20' W 002°59'1 1.0
2018-Jun-15 15:00N 50°20' W 002°59'0 0.0
2018-Jun-15 14:30N 50°20' W 002°59'0 0.0
2018-Jun-15 14:00N 50°20' W 002°59'0 0.5
2018-Jun-15 13:30N 50°20' W 002°60'0 0.3
2018-Jun-15 12:53N 50°20' W 002°60'0 0.4
2018-Jun-15 12:30N 50°20' W 002°60'1 2.0
2018-Jun-15 12:00N 50°20' W 002°58'1 2.7
2018-Jun-15 11:28N 50°18' W 002°58'0 0.7
2018-Jun-15 10:55N 50°19' W 002°58'1 3.3
2018-Jun-15 10:30N 50°20' W 002°57'0 0.4
2018-Jun-15 10:00N 50°20' W 002°57'1 1.9
2018-Jun-15 09:30N 50°19' W 002°58'0 0.7
2018-Jun-15 09:00N 50°20' W 002°58'1 1.1
2018-Jun-15 08:30N 50°20' W 002°57'0 0.9
2018-Jun-15 08:00N 50°20' W 002°57'1 1.9
2018-Jun-15 07:30N 50°21' W 002°56'0 0.8
2018-Jun-15 07:00N 50°21' W 002°55'1 1.6
2018-Jun-15 06:28N 50°21' W 002°56'1 1.4
2018-Jun-15 06:00N 50°20' W 002°57'0 0.8
2018-Jun-15 05:30N 50°20' W 002°58'0 0.6
2018-Jun-15 05:00N 50°20' W 002°57'1 1.8
2018-Jun-15 04:30N 50°20' W 002°59'1 1.4
2018-Jun-15 04:00N 50°20' W 002°60'1 1.0
2018-Jun-15 03:30N 50°20' W 002°59'1 1.9
2018-Jun-15 03:00N 50°20' W 002°57'1 2.1
2018-Jun-15 02:30N 50°20' W 002°59'1 1.9
2018-Jun-15 02:00N 50°20' W 002°58'1 2.8
2018-Jun-15 01:31N 50°20' W 002°60'1 2.5
2018-Jun-15 01:00N 50°20' W 002°58'2 3.2
2018-Jun-15 00:30N 50°20' W 003°00'1 2.9
2018-Jun-15 00:00N 50°20' W 002°58'1 1.2
2018-Jun-14 23:30N 50°20' W 002°59'1 1.9
2018-Jun-14 22:59N 50°20' W 002°58'0 0.1
2018-Jun-14 22:30N 50°20' W 002°57'1 1.7
2018-Jun-14 22:00N 50°20' W 002°59'1 1.2
2018-Jun-14 21:30N 50°20' W 002°59'0 0.4
2018-Jun-14 21:00N 50°20' W 002°59'0 0.8
2018-Jun-14 20:29N 50°20' W 002°59'0 1.0
2018-Jun-14 20:00N 50°20' W 002°59'0 0.1
2018-Jun-14 19:30N 50°20' W 002°59'0 0.2
2018-Jun-14 19:00N 50°20' W 002°59'0 0.3
2018-Jun-14 18:30N 50°20' W 002°59'0 0.0
2018-Jun-14 18:00N 50°20' W 002°59'0 0.3
2018-Jun-14 17:30N 50°20' W 002°59'0 0.8
2018-Jun-14 17:00N 50°20' W 002°60'0 0.0
2018-Jun-14 16:30N 50°20' W 002°60'0 0.0
2018-Jun-14 16:00N 50°20' W 002°60'0 0.0
2018-Jun-14 15:30N 50°20' W 002°59'0 0.0
2018-Jun-14 15:00N 50°20' W 002°59'0 0.1
2018-Jun-14 14:30N 50°20' W 002°59'0 0.1
2018-Jun-14 14:00N 50°20' W 002°59'3 5.6
2018-Jun-14 13:30N 50°21' W 003°03'4 7.9
2018-Jun-14 13:00N 50°24' W 003°08'3 6.1
2018-Jun-14 12:30N 50°26' W 003°06'0 0.0
2018-Jun-14 12:00N 50°26' W 003°06'0 0.0
2018-Jun-14 11:30N 50°27' W 003°06'0 0.0
2018-Jun-14 11:00N 50°27' W 003°06'0 0.0
2018-Jun-14 10:30N 50°27' W 003°06'0 0.0
2018-Jun-14 10:00N 50°27' W 003°06'1 1.3
2018-Jun-14 09:30N 50°26' W 003°07'1 1.2
2018-Jun-14 09:00N 50°27' W 003°06'3 6.6
2018-Jun-14 08:30N 50°27' W 003°12'611.0
2018-Jun-14 08:00N 50°26' W 003°20'611.0
2018-Jun-14 07:30N 50°25' W 003°29'1 2.7
2018-Jun-14 07:00N 50°25' W 003°31'0 0.5
2018-Jun-14 06:30N 50°25' W 003°30'2 3.2
2018-Jun-14 06:00N 50°25' W 003°28'5 9.3
2018-Jun-14 05:30N 50°21' W 003°24'612.6
2018-Jun-14 05:00N 50°15' W 003°26'510.5
2018-Jun-14 04:30N 50°11' W 003°31'612.7
2018-Jun-14 04:00N 50°10' W 003°41'913.0
2018-Jun-14 03:21N 50°09' W 003°54'512.5
2018-Jun-14 02:56N 50°09' W 004°03'612.5
2018-Jun-14 02:30N 50°08' W 004°11'611.6
2018-Jun-14 02:00N 50°09' W 004°20'611.3
2018-Jun-14 01:26N 50°13' W 004°28'1 3.2
2018-Jun-14 01:00N 50°13' W 004°30'0 0.6
2018-Jun-14 00:30N 50°13' W 004°30'0 0.3
2018-Jun-13 23:59N 50°13' W 004°30'1 1.6
2018-Jun-13 23:28N 50°14' W 004°29'0 1.0
2018-Jun-13 23:00N 50°14' W 004°29'0 1.0
2018-Jun-13 22:30N 50°13' W 004°29'1 1.0
2018-Jun-13 21:37N 50°13' W 004°30'0 0.1
2018-Jun-13 20:20N 50°13' W 004°30'0 0.0
2018-Jun-13 18:54N 50°13' W 004°30'0 0.1
2018-Jun-13 17:49N 50°13' W 004°30'2 1.9
2018-Jun-13 16:51N 50°12' W 004°27'1 0.9
2018-Jun-13 16:03N 50°12' W 004°26'0 1.5
2018-Jun-13 16:00N 50°12' W 004°26'2 3.8
2018-Jun-13 15:30N 50°12' W 004°29'1 2.6
2018-Jun-13 14:56N 50°13' W 004°27'1 2.4
2018-Jun-13 14:30N 50°13' W 004°29'1 0.7
2018-Jun-13 13:39N 50°12' W 004°28'1 2.6
2018-Jun-13 13:16N 50°12' W 004°29'1 3.5
2018-Jun-13 12:55N 50°12' W 004°31'1 2.9
2018-Jun-13 12:31N 50°12' W 004°29'1 2.3
2018-Jun-13 12:00N 50°13' W 004°31'1 1.0
2018-Jun-13 11:27N 50°13' W 004°30'0 0.0
2018-Jun-13 07:27N 50°13' W 004°30'0 0.2
2018-Jun-13 07:00N 50°13' W 004°30'0 0.0
2018-Jun-13 06:15N 50°13' W 004°30'0 0.0
2018-Jun-13 06:00N 50°13' W 004°30'0 0.0
2018-Jun-13 05:06N 50°13' W 004°30'0 0.1
2018-Jun-13 04:48N 50°13' W 004°30'0 0.3
2018-Jun-13 04:27N 50°13' W 004°30'0 0.0
2018-Jun-13 01:31N 50°13' W 004°30'0 0.0
2018-Jun-13 01:16N 50°13' W 004°30'0 0.0
2018-Jun-13 00:16N 50°13' W 004°30'0 0.0
2018-Jun-12 22:38N 50°13' W 004°30'0 0.6
2018-Jun-12 22:30N 50°13' W 004°30'0 0.4
2018-Jun-12 22:00N 50°13' W 004°31'0 0.8
2018-Jun-12 21:30N 50°13' W 004°31'0 0.0
2018-Jun-12 20:56N 50°13' W 004°31'0 0.0
2018-Jun-12 20:29N 50°13' W 004°31'0 0.0
2018-Jun-12 20:00N 50°13' W 004°31'0 0.1
2018-Jun-12 19:30N 50°13' W 004°31'0 0.1
2018-Jun-12 19:00N 50°13' W 004°31'0 0.1
2018-Jun-12 18:30N 50°13' W 004°31'0 0.1
2018-Jun-12 17:58N 50°13' W 004°31'0 0.0
2018-Jun-12 17:28N 50°13' W 004°31'0 0.0
2018-Jun-12 17:00N 50°13' W 004°31'0 0.0
2018-Jun-12 16:30N 50°13' W 004°31'0 0.0
2018-Jun-12 15:28N 50°13' W 004°31'0 0.5
2018-Jun-12 15:00N 50°13' W 004°31'0 0.0
2018-Jun-12 14:30N 50°13' W 004°31'0 0.0
2018-Jun-12 14:00N 50°13' W 004°31'0 0.0
2018-Jun-12 13:30N 50°13' W 004°31'0 0.1
2018-Jun-12 13:00N 50°13' W 004°31'0 0.0
2018-Jun-12 12:30N 50°13' W 004°31'0 0.0
2018-Jun-12 12:00N 50°13' W 004°31'0 0.1
2018-Jun-12 11:30N 50°13' W 004°31'0 0.0
2018-Jun-12 11:00N 50°13' W 004°32'0 0.0
2018-Jun-12 10:30N 50°13' W 004°32'0 0.1
2018-Jun-12 10:00N 50°13' W 004°31'0 0.0
2018-Jun-12 09:30N 50°13' W 004°31'4 3.5
2018-Jun-12 08:25N 50°14' W 004°26'7 8.1
2018-Jun-12 07:30N 50°17' W 004°15'4 7.4
2018-Jun-12 07:00N 50°20' W 004°11'3 6.5
2018-Jun-12 06:30N 50°17' W 004°15'612.4
2018-Jun-12 06:00N 50°15' W 004°24'610.8
2018-Jun-12 05:29N 50°13' W 004°32'0 0.1
2018-Jun-12 04:40N 50°13' W 004°32'0 2.1
2018-Jun-12 04:30N 50°12' W 004°31'1 1.4
2018-Jun-12 03:59N 50°13' W 004°31'1 2.4
2018-Jun-12 03:30N 50°13' W 004°32'0 0.1
2018-Jun-12 02:36N 50°13' W 004°32'0 2.4
2018-Jun-12 02:23N 50°13' W 004°32'0 0.8
2018-Jun-12 02:00N 50°13' W 004°31'0 0.4
2018-Jun-12 01:29N 50°13' W 004°31'0 0.0
2018-Jun-12 00:58N 50°13' W 004°31'0 0.0
2018-Jun-12 00:30N 50°13' W 004°31'0 0.0
2018-Jun-12 00:00N 50°13' W 004°31'0 0.0
2018-Jun-11 23:30N 50°13' W 004°31'0 0.0
2018-Jun-11 23:00N 50°13' W 004°31'0 0.0
2018-Jun-11 22:30N 50°13' W 004°31'0 0.0
2018-Jun-11 22:00N 50°13' W 004°31'0 0.0
2018-Jun-11 21:28N 50°13' W 004°31'0 0.2
2018-Jun-11 21:01N 50°13' W 004°31'0 0.2
2018-Jun-11 20:31N 50°13' W 004°31'1 0.8
2018-Jun-11 19:37N 50°13' W 004°33'1 5.6
2018-Jun-11 19:30N 50°12' W 004°33'610.9
2018-Jun-11 18:58N 50°08' W 004°40'812.6
2018-Jun-11 18:22N 50°04' W 004°50'612.6
2018-Jun-11 17:55N 50°01' W 004°57'4110.0
2018-Jun-11 13:49N 50°08' W 006°00'310.8
2018-Jun-11 13:30N 50°11' W 006°00'510.5
2018-Jun-11 13:00N 50°16' W 006°01'1610.5
2018-Jun-11 11:29N 50°32' W 005°53'611.9
2018-Jun-11 11:01N 50°36' W 005°47'712.2
2018-Jun-11 10:28N 50°41' W 005°40'612.5
2018-Jun-11 09:59N 50°45' W 005°34'612.6
2018-Jun-11 09:31N 50°49' W 005°27'612.7
2018-Jun-11 09:00N 50°54' W 005°20'612.9
2018-Jun-11 08:30N 50°58' W 005°13'713.1
2018-Jun-11 07:57N 51°03' W 005°04'613.1
2018-Jun-11 07:31N 51°06' W 004°56'713.5
2018-Jun-11 07:00N 51°11' W 004°48'  
Track history (hours):
 
Tides and Currents Weather Stations Pressure Air Temp Water Temp Dewpoint Dewpoint Depression Visibility Wind Speed Wind Dir Waves Ship Positions

Oceanographic research ship CEFAS Endeavour (UK)

Detailed information on ship capabilities available from University of Delaware's Ocean Information Center.

Last reported at 2018-Jun-21 06:30 UTC. Time now 2018-Jun-21 06:52 UTC.
Position N 55°11' W 001°08'.

Length 74 m; draft 8.5 m.

Type: Ship. MMSI: 235005270.

Date/timePositionNaut miles runAvg speedWind from/ knotsBaromVisibWave heightAir tempDewpointWater temp
2018-Jun-21 06:30N 55°11' W 001°08'1 2.5
2018-Jun-21 06:00N 55°10' W 001°07'4 5.6
2018-Jun-21 05:18N 55°14' W 001°07'0 0.5
2018-Jun-21 05:00N 55°14' W 001°07'1 2.3
2018-Jun-21 04:30N 55°15' W 001°08'0 0.6
2018-Jun-21 04:00N 55°15' W 001°09'2 4.9
2018-Jun-21 03:30N 55°16' W 001°13'0 0.6
2018-Jun-21 03:00N 55°16' W 001°13'2 4.3
2018-Jun-21 02:30N 55°18' W 001°11'1 1.3
2018-Jun-21 02:00N 55°18' W 001°10'3 5.9
2018-Jun-21 01:30N 55°18' W 001°05'0 0.9
2018-Jun-21 01:00N 55°18' W 001°04'2 4.0
2018-Jun-21 00:30N 55°19' W 001°01'4 5.0
2018-Jun-20 23:45N 55°20' W 001°07'0 0.7
2018-Jun-20 23:30N 55°20' W 001°07'0 0.4
2018-Jun-20 23:00N 55°20' W 001°07'3 6.2
2018-Jun-20 22:30N 55°21' W 001°12'0 0.6
2018-Jun-20 22:00N 55°21' W 001°12'3 6.3
2018-Jun-20 21:30N 55°21' W 001°17'0 0.7
2018-Jun-20 21:00N 55°21' W 001°17'3 5.0
2018-Jun-20 20:30N 55°23' W 001°14'0 0.5
2018-Jun-20 20:00N 55°23' W 001°14'2 3.9
2018-Jun-20 19:30N 55°23' W 001°11'1 2.6
2018-Jun-20 19:00N 55°22' W 001°09'2 4.5
2018-Jun-20 18:29N 55°23' W 001°05'0 1.0
2018-Jun-20 18:00N 55°22' W 001°04'3 6.3
2018-Jun-20 17:28N 55°24' W 000°59'1 1.3
2018-Jun-20 16:44N 55°25' W 000°58'2 8.3
2018-Jun-20 16:30N 55°25' W 000°54'4 7.9
2018-Jun-20 16:00N 55°26' W 000°48'5 4.2
2018-Jun-20 14:45N 55°22' W 000°55'6 0.4
2018-Jun-19 22:38N 55°27' W 001°03'2 9.1
2018-Jun-19 22:22N 55°27' W 001°07'0 0.7
2018-Jun-19 21:59N 55°27' W 001°07'0 0.4
2018-Jun-19 21:30N 55°27' W 001°07'6 9.9
2018-Jun-19 20:55N 55°33' W 001°06'0 0.3
2018-Jun-19 19:34N 55°32' W 001°06'0 0.0
2018-Jun-19 19:26N 55°32' W 001°06'0 0.0
2018-Jun-19 19:00N 55°32' W 001°06'0 0.0
2018-Jun-19 18:30N 55°32' W 001°06'2 3.1
2018-Jun-19 18:00N 55°31' W 001°04'1311.3
2018-Jun-19 16:51N 55°21' W 000°51'2912.2
2018-Jun-19 14:30N 54°57' W 000°23'612.4
2018-Jun-19 14:00N 54°52' W 000°17'612.6
2018-Jun-19 13:30N 54°47' W 000°11'612.6
2018-Jun-19 13:00N 54°42' W 000°04'612.4
2018-Jun-19 12:30N 54°36' E 000°02'612.9
2018-Jun-19 12:00N 54°31' E 000°08'612.8
2018-Jun-19 11:30N 54°26' E 000°14'612.9
2018-Jun-19 11:00N 54°21' E 000°20'612.8
2018-Jun-19 10:30N 54°15' E 000°27'812.3
2018-Jun-19 09:50N 54°09' E 000°35'5312.3
2018-Jun-19 05:31N 53°22' E 001°18'014.4
2018-Jun-19 05:30N 53°22' E 001°19'714.5
2018-Jun-19 04:59N 53°17' E 001°27'714.5
2018-Jun-19 04:30N 53°11' E 001°34'714.3
2018-Jun-19 04:01N 53°05' E 001°41'713.9
2018-Jun-19 03:30N 52°59' E 001°48'713.4
2018-Jun-19 03:00N 52°53' E 001°52'612.9
2018-Jun-19 02:30N 52°47' E 001°54'612.2
2018-Jun-19 02:00N 52°41' E 001°55'15 0.4
2018-Jun-17 10:16N 52°26' E 001°49'9 2.4
2018-Jun-17 06:24N 52°20' E 002°00'3 7.2
2018-Jun-17 06:00N 52°17' E 001°59'4 7.5
2018-Jun-17 05:31N 52°13' E 001°57'4 7.9
2018-Jun-17 05:01N 52°10' E 001°56'4 8.3
2018-Jun-17 04:31N 52°06' E 001°54'612.6
2018-Jun-17 04:01N 51°60' E 001°51'612.7
2018-Jun-17 03:31N 51°53' E 001°48'612.0
2018-Jun-17 03:00N 51°48' E 001°49'612.2
2018-Jun-17 02:31N 51°41' E 001°49'611.8
2018-Jun-17 02:00N 51°35' E 001°50'613.0
2018-Jun-17 01:30N 51°29' E 001°49'714.3
2018-Jun-17 01:00N 51°22' E 001°45'714.0
2018-Jun-17 00:30N 51°16' E 001°41'612.7
2018-Jun-17 00:00N 51°10' E 001°35'713.2
2018-Jun-16 23:30N 51°07' E 001°27'713.3
2018-Jun-16 23:00N 51°03' E 001°18'612.5
2018-Jun-16 22:30N 50°59' E 001°10'712.5
2018-Jun-16 21:59N 50°55' E 001°02'4 8.1
2018-Jun-16 21:30N 50°53' E 000°57'612.1
2018-Jun-16 21:00N 50°49' E 000°49'612.3
2018-Jun-16 20:30N 50°45' E 000°42'612.2
2018-Jun-16 20:00N 50°41' E 000°34'611.3
2018-Jun-16 19:30N 50°40' E 000°25'611.8
2018-Jun-16 19:00N 50°40' E 000°16'611.4
2018-Jun-16 18:30N 50°39' E 000°07'1411.5
2018-Jun-16 17:16N 50°37' W 000°15'311.6
2018-Jun-16 17:00N 50°36' W 000°20'611.5
2018-Jun-16 16:30N 50°35' W 000°28'2 4.5
2018-Jun-16 16:00N 50°34' W 000°31'4 8.6
2018-Jun-16 15:29N 50°32' W 000°38'510.6
2018-Jun-16 15:00N 50°30' W 000°45'6811.2
2018-Jun-16 08:53N 50°22' W 002°32'610.9
2018-Jun-16 08:20N 50°22' W 002°41'310.4
2018-Jun-16 08:00N 50°22' W 002°46'5 9.8
2018-Jun-16 07:30N 50°22' W 002°54'4 7.6
2018-Jun-16 07:00N 50°20' W 002°59'1 1.8
2018-Jun-16 06:30N 50°20' W 002°58'1 1.8
2018-Jun-16 05:58N 50°20' W 002°59'0 0.4
2018-Jun-16 05:30N 50°20' W 002°60'0 0.1
2018-Jun-16 05:00N 50°20' W 002°60'0 0.4
2018-Jun-16 04:30N 50°20' W 002°59'1 2.1
2018-Jun-16 04:00N 50°21' W 002°60'1 2.1
2018-Jun-16 03:30N 50°20' W 002°60'0 1.0
2018-Jun-16 03:00N 50°20' W 002°59'1 1.1
2018-Jun-16 02:30N 50°21' W 002°58'1 2.3
2018-Jun-16 02:00N 50°20' W 003°00'0 0.6
2018-Jun-16 01:30N 50°20' W 003°00'1 1.5
2018-Jun-16 01:00N 50°20' W 002°59'1 1.5
2018-Jun-16 00:31N 50°20' W 003°00'0 0.7
2018-Jun-16 00:00N 50°20' W 002°60'1 1.6
2018-Jun-15 23:30N 50°20' W 002°59'1 2.3
2018-Jun-15 23:00N 50°20' W 003°00'0 0.4
2018-Jun-15 22:30N 50°20' W 003°00'1 1.7
2018-Jun-15 22:00N 50°20' W 002°59'0 0.4
2018-Jun-15 21:30N 50°20' W 002°59'1 1.1
2018-Jun-15 21:00N 50°20' W 003°00'0 0.8
2018-Jun-15 20:24N 50°20' W 002°59'0 0.7
2018-Jun-15 20:00N 50°20' W 002°60'0 0.1
2018-Jun-15 19:30N 50°20' W 002°60'0 0.1
2018-Jun-15 19:00N 50°20' W 002°60'0 0.8
2018-Jun-15 18:30N 50°20' W 002°59'0 0.4
2018-Jun-15 18:00N 50°20' W 002°59'0 0.4
2018-Jun-15 17:30N 50°20' W 002°59'0 0.4
2018-Jun-15 17:00N 50°20' W 002°59'0 0.0
2018-Jun-15 16:30N 50°20' W 002°59'0 0.5
2018-Jun-15 16:00N 50°20' W 002°59'0 0.3
2018-Jun-15 15:30N 50°20' W 002°59'1 1.0
2018-Jun-15 15:00N 50°20' W 002°59'0 0.0
2018-Jun-15 14:30N 50°20' W 002°59'0 0.0
2018-Jun-15 14:00N 50°20' W 002°59'0 0.5
2018-Jun-15 13:30N 50°20' W 002°60'0 0.3
2018-Jun-15 12:53N 50°20' W 002°60'0 0.4
2018-Jun-15 12:30N 50°20' W 002°60'1 2.0
2018-Jun-15 12:00N 50°20' W 002°58'1 2.7
2018-Jun-15 11:28N 50°18' W 002°58'0 0.7
2018-Jun-15 10:55N 50°19' W 002°58'1 3.3
2018-Jun-15 10:30N 50°20' W 002°57'0 0.4
2018-Jun-15 10:00N 50°20' W 002°57'1 1.9
2018-Jun-15 09:30N 50°19' W 002°58'0 0.7
2018-Jun-15 09:00N 50°20' W 002°58'1 1.1
2018-Jun-15 08:30N 50°20' W 002°57'0 0.9
2018-Jun-15 08:00N 50°20' W 002°57'1 1.9
2018-Jun-15 07:30N 50°21' W 002°56'0 0.8
2018-Jun-15 07:00N 50°21' W 002°55'1 1.6
2018-Jun-15 06:28N 50°21' W 002°56'1 1.4
2018-Jun-15 06:00N 50°20' W 002°57'0 0.8
2018-Jun-15 05:30N 50°20' W 002°58'0 0.6
2018-Jun-15 05:00N 50°20' W 002°57'1 1.8
2018-Jun-15 04:30N 50°20' W 002°59'1 1.4
2018-Jun-15 04:00N 50°20' W 002°60'1 1.0
2018-Jun-15 03:30N 50°20' W 002°59'1 1.9
2018-Jun-15 03:00N 50°20' W 002°57'1 2.1
2018-Jun-15 02:30N 50°20' W 002°59'1 1.9
2018-Jun-15 02:00N 50°20' W 002°58'1 2.8
2018-Jun-15 01:31N 50°20' W 002°60'1 2.5
2018-Jun-15 01:00N 50°20' W 002°58'2 3.2
2018-Jun-15 00:30N 50°20' W 003°00'1 2.9
2018-Jun-15 00:00N 50°20' W 002°58'1 1.2
2018-Jun-14 23:30N 50°20' W 002°59'1 1.9
2018-Jun-14 22:59N 50°20' W 002°58'0 0.1
2018-Jun-14 22:30N 50°20' W 002°57'1 1.7
2018-Jun-14 22:00N 50°20' W 002°59'1 1.2
2018-Jun-14 21:30N 50°20' W 002°59'0 0.4
2018-Jun-14 21:00N 50°20' W 002°59'0 0.8
2018-Jun-14 20:29N 50°20' W 002°59'0 1.0
2018-Jun-14 20:00N 50°20' W 002°59'0 0.1
2018-Jun-14 19:30N 50°20' W 002°59'0 0.2
2018-Jun-14 19:00N 50°20' W 002°59'0 0.3
2018-Jun-14 18:30N 50°20' W 002°59'0 0.0
2018-Jun-14 18:00N 50°20' W 002°59'0 0.3
2018-Jun-14 17:30N 50°20' W 002°59'0 0.8
2018-Jun-14 17:00N 50°20' W 002°60'0 0.0
2018-Jun-14 16:30N 50°20' W 002°60'0 0.0
2018-Jun-14 16:00N 50°20' W 002°60'0 0.0
2018-Jun-14 15:30N 50°20' W 002°59'0 0.0
2018-Jun-14 15:00N 50°20' W 002°59'0 0.1
2018-Jun-14 14:30N 50°20' W 002°59'0 0.1
2018-Jun-14 14:00N 50°20' W 002°59'3 5.6
2018-Jun-14 13:30N 50°21' W 003°03'4 7.9
2018-Jun-14 13:00N 50°24' W 003°08'3 6.1
2018-Jun-14 12:30N 50°26' W 003°06'0 0.0
2018-Jun-14 12:00N 50°26' W 003°06'0 0.0
2018-Jun-14 11:30N 50°27' W 003°06'0 0.0
2018-Jun-14 11:00N 50°27' W 003°06'0 0.0
2018-Jun-14 10:30N 50°27' W 003°06'0 0.0
2018-Jun-14 10:00N 50°27' W 003°06'1 1.3
2018-Jun-14 09:30N 50°26' W 003°07'1 1.2
2018-Jun-14 09:00N 50°27' W 003°06'3 6.6
2018-Jun-14 08:30N 50°27' W 003°12'611.0
2018-Jun-14 08:00N 50°26' W 003°20'611.0
2018-Jun-14 07:30N 50°25' W 003°29'1 2.7
2018-Jun-14 07:00N 50°25' W 003°31'0 0.5
2018-Jun-14 06:30N 50°25' W 003°30'2 3.2
2018-Jun-14 06:00N 50°25' W 003°28'5 9.3
2018-Jun-14 05:30N 50°21' W 003°24'612.6
2018-Jun-14 05:00N 50°15' W 003°26'510.5
2018-Jun-14 04:30N 50°11' W 003°31'612.7
2018-Jun-14 04:00N 50°10' W 003°41'913.0
2018-Jun-14 03:21N 50°09' W 003°54'512.5
2018-Jun-14 02:56N 50°09' W 004°03'612.5
2018-Jun-14 02:30N 50°08' W 004°11'611.6
2018-Jun-14 02:00N 50°09' W 004°20'611.3
2018-Jun-14 01:26N 50°13' W 004°28'1 3.2
2018-Jun-14 01:00N 50°13' W 004°30'0 0.6
2018-Jun-14 00:30N 50°13' W 004°30'0 0.3
2018-Jun-13 23:59N 50°13' W 004°30'1 1.6
2018-Jun-13 23:28N 50°14' W 004°29'0 1.0
2018-Jun-13 23:00N 50°14' W 004°29'0 1.0
2018-Jun-13 22:30N 50°13' W 004°29'1 1.0
2018-Jun-13 21:37N 50°13' W 004°30'0 0.1
2018-Jun-13 20:20N 50°13' W 004°30'0 0.0
2018-Jun-13 18:54N 50°13' W 004°30'0 0.1
2018-Jun-13 17:49N 50°13' W 004°30'2 1.9
2018-Jun-13 16:51N 50°12' W 004°27'1 0.9
2018-Jun-13 16:03N 50°12' W 004°26'0 1.5
2018-Jun-13 16:00N 50°12' W 004°26'2 3.8
2018-Jun-13 15:30N 50°12' W 004°29'1 2.6
2018-Jun-13 14:56N 50°13' W 004°27'1 2.4
2018-Jun-13 14:30N 50°13' W 004°29'1 0.7
2018-Jun-13 13:39N 50°12' W 004°28'1 2.6
2018-Jun-13 13:16N 50°12' W 004°29'1 3.5
2018-Jun-13 12:55N 50°12' W 004°31'1 2.9
2018-Jun-13 12:31N 50°12' W 004°29'1 2.3
2018-Jun-13 12:00N 50°13' W 004°31'1 1.0
2018-Jun-13 11:27N 50°13' W 004°30'0 0.0
2018-Jun-13 07:27N 50°13' W 004°30'0 0.2
2018-Jun-13 07:00N 50°13' W 004°30'0 0.0
2018-Jun-13 06:15N 50°13' W 004°30'0 0.0
2018-Jun-13 06:00N 50°13' W 004°30'0 0.0
2018-Jun-13 05:06N 50°13' W 004°30'0 0.1
2018-Jun-13 04:48N 50°13' W 004°30'0 0.3
2018-Jun-13 04:27N 50°13' W 004°30'0 0.0
2018-Jun-13 01:31N 50°13' W 004°30'0 0.0
2018-Jun-13 01:16N 50°13' W 004°30'0 0.0
2018-Jun-13 00:16N 50°13' W 004°30'0 0.0
2018-Jun-12 22:38N 50°13' W 004°30'0 0.6
2018-Jun-12 22:30N 50°13' W 004°30'0 0.4
2018-Jun-12 22:00N 50°13' W 004°31'0 0.8
2018-Jun-12 21:30N 50°13' W 004°31'0 0.0
2018-Jun-12 20:56N 50°13' W 004°31'0 0.0
2018-Jun-12 20:29N 50°13' W 004°31'0 0.0
2018-Jun-12 20:00N 50°13' W 004°31'0 0.1
2018-Jun-12 19:30N 50°13' W 004°31'0 0.1
2018-Jun-12 19:00N 50°13' W 004°31'0 0.1
2018-Jun-12 18:30N 50°13' W 004°31'0 0.1
2018-Jun-12 17:58N 50°13' W 004°31'0 0.0
2018-Jun-12 17:28N 50°13' W 004°31'0 0.0
2018-Jun-12 17:00N 50°13' W 004°31'0 0.0
2018-Jun-12 16:30N 50°13' W 004°31'0 0.0
2018-Jun-12 15:28N 50°13' W 004°31'0 0.5
2018-Jun-12 15:00N 50°13' W 004°31'0 0.0
2018-Jun-12 14:30N 50°13' W 004°31'0 0.0
2018-Jun-12 14:00N 50°13' W 004°31'0 0.0
2018-Jun-12 13:30N 50°13' W 004°31'0 0.1
2018-Jun-12 13:00N 50°13' W 004°31'0 0.0
2018-Jun-12 12:30N 50°13' W 004°31'0 0.0
2018-Jun-12 12:00N 50°13' W 004°31'0 0.1
2018-Jun-12 11:30N 50°13' W 004°31'0 0.0
2018-Jun-12 11:00N 50°13' W 004°32'0 0.0
2018-Jun-12 10:30N 50°13' W 004°32'0 0.1
2018-Jun-12 10:00N 50°13' W 004°31'0 0.0
2018-Jun-12 09:30N 50°13' W 004°31'4 3.5
2018-Jun-12 08:25N 50°14' W 004°26'7 8.1
2018-Jun-12 07:30N 50°17' W 004°15'4 7.4
2018-Jun-12 07:00N 50°20' W 004°11'3 6.5
2018-Jun-12 06:30N 50°17' W 004°15'612.4
2018-Jun-12 06:00N 50°15' W 004°24'610.8
2018-Jun-12 05:29N 50°13' W 004°32'0 0.1
2018-Jun-12 04:40N 50°13' W 004°32'0 2.1
2018-Jun-12 04:30N 50°12' W 004°31'1 1.4
2018-Jun-12 03:59N 50°13' W 004°31'1 2.4
2018-Jun-12 03:30N 50°13' W 004°32'0 0.1
2018-Jun-12 02:36N 50°13' W 004°32'0 2.4
2018-Jun-12 02:23N 50°13' W 004°32'0 0.8
2018-Jun-12 02:00N 50°13' W 004°31'0 0.4
2018-Jun-12 01:29N 50°13' W 004°31'0 0.0
2018-Jun-12 00:58N 50°13' W 004°31'0 0.0
2018-Jun-12 00:30N 50°13' W 004°31'0 0.0
2018-Jun-12 00:00N 50°13' W 004°31'0 0.0
2018-Jun-11 23:30N 50°13' W 004°31'0 0.0
2018-Jun-11 23:00N 50°13' W 004°31'0 0.0
2018-Jun-11 22:30N 50°13' W 004°31'0 0.0
2018-Jun-11 22:00N 50°13' W 004°31'0 0.0
2018-Jun-11 21:28N 50°13' W 004°31'0 0.2
2018-Jun-11 21:01N 50°13' W 004°31'0 0.2
2018-Jun-11 20:31N 50°13' W 004°31'1 0.8
2018-Jun-11 19:37N 50°13' W 004°33'1 5.6
2018-Jun-11 19:30N 50°12' W 004°33'610.9
2018-Jun-11 18:58N 50°08' W 004°40'812.6
2018-Jun-11 18:22N 50°04' W 004°50'612.6
2018-Jun-11 17:55N 50°01' W 004°57'4110.0
2018-Jun-11 13:49N 50°08' W 006°00'310.8
2018-Jun-11 13:30N 50°11' W 006°00'510.5
2018-Jun-11 13:00N 50°16' W 006°01'1610.5
2018-Jun-11 11:29N 50°32' W 005°53'611.9
2018-Jun-11 11:01N 50°36' W 005°47'712.2
2018-Jun-11 10:28N 50°41' W 005°40'612.5
2018-Jun-11 09:59N 50°45' W 005°34'612.6
2018-Jun-11 09:31N 50°49' W 005°27'612.7
2018-Jun-11 09:00N 50°54' W 005°20'612.9
2018-Jun-11 08:30N 50°58' W 005°13'713.1
2018-Jun-11 07:57N 51°03' W 005°04'613.1
2018-Jun-11 07:31N 51°06' W 004°56'713.5
2018-Jun-11 07:00N 51°11' W 004°48'  

Dump ship's entire track history